sensor_id;sensor_type;location;lat;lon;timestamp;P1;durP1;ratioP1;P2;durP2;ratioP2
31660;SDS011;18267;52.234;7.444;2022-08-23T00:01:07;4.13;;;3.45;;
31660;SDS011;18267;52.234;7.444;2022-08-23T00:03:36;6.35;;;3.47;;
31660;SDS011;18267;52.234;7.444;2022-08-23T00:06:01;8.60;;;3.60;;
31660;SDS011;18267;52.234;7.444;2022-08-23T00:08:27;7.47;;;3.70;;
31660;SDS011;18267;52.234;7.444;2022-08-23T00:10:54;9.57;;;3.90;;
31660;SDS011;18267;52.234;7.444;2022-08-23T00:13:20;5.53;;;3.25;;
31660;SDS011;18267;52.234;7.444;2022-08-23T00:15:46;6.03;;;4.00;;
31660;SDS011;18267;52.234;7.444;2022-08-23T00:18:12;4.47;;;4.05;;
31660;SDS011;18267;52.234;7.444;2022-08-23T00:20:39;6.88;;;4.45;;
31660;SDS011;18267;52.234;7.444;2022-08-23T00:23:05;6.40;;;3.67;;
31660;SDS011;18267;52.234;7.444;2022-08-23T00:25:31;4.70;;;3.10;;
31660;SDS011;18267;52.234;7.444;2022-08-23T00:27:56;7.78;;;4.40;;
31660;SDS011;18267;52.234;7.444;2022-08-23T00:30:22;8.23;;;4.40;;
31660;SDS011;18267;52.234;7.444;2022-08-23T00:32:48;6.68;;;4.30;;
31660;SDS011;18267;52.234;7.444;2022-08-23T00:35:14;9.82;;;4.22;;
31660;SDS011;18267;52.234;7.444;2022-08-23T00:37:40;5.47;;;4.18;;
31660;SDS011;18267;52.234;7.444;2022-08-23T00:40:07;7.88;;;4.75;;
31660;SDS011;18267;52.234;7.444;2022-08-23T00:45:25;4.47;;;3.95;;
31660;SDS011;18267;52.234;7.444;2022-08-23T00:48:20;5.10;;;3.85;;
31660;SDS011;18267;52.234;7.444;2022-08-23T00:53:15;6.35;;;4.25;;
31660;SDS011;18267;52.234;7.444;2022-08-23T00:55:46;7.03;;;4.32;;
31660;SDS011;18267;52.234;7.444;2022-08-23T00:58:15;6.10;;;4.50;;
31660;SDS011;18267;52.234;7.444;2022-08-23T01:00:43;4.35;;;3.85;;
31660;SDS011;18267;52.234;7.444;2022-08-23T01:03:09;4.03;;;3.72;;
31660;SDS011;18267;52.234;7.444;2022-08-23T01:08:16;4.47;;;4.07;;
31660;SDS011;18267;52.234;7.444;2022-08-23T01:10:43;5.35;;;3.72;;
31660;SDS011;18267;52.234;7.444;2022-08-23T01:13:17;4.75;;;3.92;;
31660;SDS011;18267;52.234;7.444;2022-08-23T01:15:53;5.10;;;4.55;;
31660;SDS011;18267;52.234;7.444;2022-08-23T01:18:25;8.85;;;5.15;;
31660;SDS011;18267;52.234;7.444;2022-08-23T01:23:48;6.28;;;3.83;;
31660;SDS011;18267;52.234;7.444;2022-08-23T01:26:18;7.35;;;3.72;;
31660;SDS011;18267;52.234;7.444;2022-08-23T01:28:45;5.78;;;4.18;;
31660;SDS011;18267;52.234;7.444;2022-08-23T01:31:11;7.47;;;3.85;;
31660;SDS011;18267;52.234;7.444;2022-08-23T01:33:38;8.48;;;3.75;;
31660;SDS011;18267;52.234;7.444;2022-08-23T01:36:07;6.70;;;4.68;;
31660;SDS011;18267;52.234;7.444;2022-08-23T01:38:35;9.80;;;4.05;;
31660;SDS011;18267;52.234;7.444;2022-08-23T01:41:01;6.35;;;5.00;;
31660;SDS011;18267;52.234;7.444;2022-08-23T01:43:27;6.28;;;4.22;;
31660;SDS011;18267;52.234;7.444;2022-08-23T01:45:53;4.75;;;3.78;;
31660;SDS011;18267;52.234;7.444;2022-08-23T01:48:19;7.63;;;4.18;;
31660;SDS011;18267;52.234;7.444;2022-08-23T01:50:45;4.70;;;3.95;;
31660;SDS011;18267;52.234;7.444;2022-08-23T01:53:11;6.28;;;3.88;;
31660;SDS011;18267;52.234;7.444;2022-08-23T01:55:38;5.03;;;4.07;;
31660;SDS011;18267;52.234;7.444;2022-08-23T01:58:06;5.80;;;4.00;;
31660;SDS011;18267;52.234;7.444;2022-08-23T02:00:36;4.35;;;3.47;;
31660;SDS011;18267;52.234;7.444;2022-08-23T02:03:04;4.78;;;3.22;;
31660;SDS011;18267;52.234;7.444;2022-08-23T02:05:31;4.78;;;3.95;;
31660;SDS011;18267;52.234;7.444;2022-08-23T02:07:57;5.07;;;3.63;;
31660;SDS011;18267;52.234;7.444;2022-08-23T02:10:45;4.10;;;3.70;;
31660;SDS011;18267;52.234;7.444;2022-08-23T02:13:11;4.72;;;3.63;;
31660;SDS011;18267;52.234;7.444;2022-08-23T02:15:36;5.25;;;3.40;;
31660;SDS011;18267;52.234;7.444;2022-08-23T02:18:03;7.20;;;3.95;;
31660;SDS011;18267;52.234;7.444;2022-08-23T02:20:30;4.63;;;4.13;;
31660;SDS011;18267;52.234;7.444;2022-08-23T02:22:55;5.20;;;4.47;;
31660;SDS011;18267;52.234;7.444;2022-08-23T02:25:21;7.53;;;4.55;;
31660;SDS011;18267;52.234;7.444;2022-08-23T02:27:46;8.00;;;4.82;;
31660;SDS011;18267;52.234;7.444;2022-08-23T02:30:12;6.20;;;4.38;;
31660;SDS011;18267;52.234;7.444;2022-08-23T02:32:37;5.20;;;4.68;;
31660;SDS011;18267;52.234;7.444;2022-08-23T02:35:03;11.23;;;4.75;;
31660;SDS011;18267;52.234;7.444;2022-08-23T02:37:29;6.57;;;4.78;;
31660;SDS011;18267;52.234;7.444;2022-08-23T02:39:55;6.25;;;4.45;;
31660;SDS011;18267;52.234;7.444;2022-08-23T02:42:20;6.32;;;4.38;;
31660;SDS011;18267;52.234;7.444;2022-08-23T02:44:46;5.75;;;4.00;;
31660;SDS011;18267;52.234;7.444;2022-08-23T02:47:12;4.05;;;3.65;;
31660;SDS011;18267;52.234;7.444;2022-08-23T02:49:38;4.18;;;3.78;;
31660;SDS011;18267;52.234;7.444;2022-08-23T02:52:04;4.65;;;3.90;;
31660;SDS011;18267;52.234;7.444;2022-08-23T02:54:30;6.00;;;3.85;;
31660;SDS011;18267;52.234;7.444;2022-08-23T02:56:57;4.38;;;3.92;;
31660;SDS011;18267;52.234;7.444;2022-08-23T02:59:22;7.63;;;3.85;;
31660;SDS011;18267;52.234;7.444;2022-08-23T03:01:48;5.50;;;3.90;;
31660;SDS011;18267;52.234;7.444;2022-08-23T03:04:13;4.55;;;4.15;;
31660;SDS011;18267;52.234;7.444;2022-08-23T03:06:39;4.32;;;3.92;;
31660;SDS011;18267;52.234;7.444;2022-08-23T03:09:05;3.95;;;3.60;;
31660;SDS011;18267;52.234;7.444;2022-08-23T03:11:31;4.63;;;4.15;;
31660;SDS011;18267;52.234;7.444;2022-08-23T03:13:57;5.05;;;3.67;;
31660;SDS011;18267;52.234;7.444;2022-08-23T03:16:25;4.22;;;3.33;;
31660;SDS011;18267;52.234;7.444;2022-08-23T03:18:50;5.43;;;3.17;;
31660;SDS011;18267;52.234;7.444;2022-08-23T03:21:16;5.03;;;3.30;;
31660;SDS011;18267;52.234;7.444;2022-08-23T03:23:43;4.65;;;3.00;;
31660;SDS011;18267;52.234;7.444;2022-08-23T03:26:09;4.65;;;2.95;;
31660;SDS011;18267;52.234;7.444;2022-08-23T03:28:37;8.07;;;3.10;;
31660;SDS011;18267;52.234;7.444;2022-08-23T03:31:04;4.80;;;3.35;;
31660;SDS011;18267;52.234;7.444;2022-08-23T03:33:31;4.80;;;3.60;;
31660;SDS011;18267;52.234;7.444;2022-08-23T03:35:57;4.60;;;3.25;;
31660;SDS011;18267;52.234;7.444;2022-08-23T03:38:23;4.28;;;3.35;;
31660;SDS011;18267;52.234;7.444;2022-08-23T03:40:49;4.40;;;3.33;;
31660;SDS011;18267;52.234;7.444;2022-08-23T03:43:16;5.78;;;3.38;;
31660;SDS011;18267;52.234;7.444;2022-08-23T03:45:42;5.20;;;3.60;;
31660;SDS011;18267;52.234;7.444;2022-08-23T03:48:08;5.65;;;3.60;;
31660;SDS011;18267;52.234;7.444;2022-08-23T03:50:33;5.03;;;3.35;;
31660;SDS011;18267;52.234;7.444;2022-08-23T03:53:00;3.80;;;3.50;;
31660;SDS011;18267;52.234;7.444;2022-08-23T03:55:25;4.55;;;3.17;;
31660;SDS011;18267;52.234;7.444;2022-08-23T03:57:51;3.67;;;3.38;;
31660;SDS011;18267;52.234;7.444;2022-08-23T04:00:16;6.70;;;3.33;;
31660;SDS011;18267;52.234;7.444;2022-08-23T04:02:42;5.78;;;3.67;;
31660;SDS011;18267;52.234;7.444;2022-08-23T04:05:07;3.97;;;3.58;;
31660;SDS011;18267;52.234;7.444;2022-08-23T04:07:34;4.05;;;3.47;;
31660;SDS011;18267;52.234;7.444;2022-08-23T04:10:02;6.95;;;4.25;;
31660;SDS011;18267;52.234;7.444;2022-08-23T04:12:29;5.78;;;3.60;;
31660;SDS011;18267;52.234;7.444;2022-08-23T04:14:55;7.43;;;4.18;;
31660;SDS011;18267;52.234;7.444;2022-08-23T04:17:21;7.18;;;4.00;;
31660;SDS011;18267;52.234;7.444;2022-08-23T04:19:47;3.67;;;3.38;;
31660;SDS011;18267;52.234;7.444;2022-08-23T04:22:14;4.80;;;3.13;;
31660;SDS011;18267;52.234;7.444;2022-08-23T04:24:41;8.70;;;3.55;;
31660;SDS011;18267;52.234;7.444;2022-08-23T04:27:08;4.13;;;3.38;;
31660;SDS011;18267;52.234;7.444;2022-08-23T04:29:34;4.25;;;3.25;;
31660;SDS011;18267;52.234;7.444;2022-08-23T04:32:02;4.15;;;3.10;;
31660;SDS011;18267;52.234;7.444;2022-08-23T04:34:28;6.00;;;3.70;;
31660;SDS011;18267;52.234;7.444;2022-08-23T04:36:53;4.00;;;3.45;;
31660;SDS011;18267;52.234;7.444;2022-08-23T04:39:19;7.30;;;3.58;;
31660;SDS011;18267;52.234;7.444;2022-08-23T04:41:44;4.97;;;3.55;;
31660;SDS011;18267;52.234;7.444;2022-08-23T04:44:29;4.25;;;3.67;;
31660;SDS011;18267;52.234;7.444;2022-08-23T04:46:54;5.32;;;3.97;;
31660;SDS011;18267;52.234;7.444;2022-08-23T04:49:20;5.22;;;3.55;;
31660;SDS011;18267;52.234;7.444;2022-08-23T04:51:47;4.10;;;3.70;;
31660;SDS011;18267;52.234;7.444;2022-08-23T04:54:13;5.75;;;4.28;;
31660;SDS011;18267;52.234;7.444;2022-08-23T04:56:41;5.82;;;3.90;;
31660;SDS011;18267;52.234;7.444;2022-08-23T04:59:07;7.10;;;4.28;;
31660;SDS011;18267;52.234;7.444;2022-08-23T05:01:33;4.07;;;3.70;;
31660;SDS011;18267;52.234;7.444;2022-08-23T05:04:00;4.03;;;3.75;;
31660;SDS011;18267;52.234;7.444;2022-08-23T05:06:27;7.10;;;3.72;;
31660;SDS011;18267;52.234;7.444;2022-08-23T05:08:53;4.43;;;3.47;;
31660;SDS011;18267;52.234;7.444;2022-08-23T05:11:19;5.07;;;3.78;;
31660;SDS011;18267;52.234;7.444;2022-08-23T05:13:45;4.35;;;3.85;;
31660;SDS011;18267;52.234;7.444;2022-08-23T05:16:10;5.07;;;3.50;;
31660;SDS011;18267;52.234;7.444;2022-08-23T05:18:36;7.78;;;4.72;;
31660;SDS011;18267;52.234;7.444;2022-08-23T05:21:02;7.53;;;4.00;;
31660;SDS011;18267;52.234;7.444;2022-08-23T05:23:28;7.40;;;4.15;;
31660;SDS011;18267;52.234;7.444;2022-08-23T05:25:54;7.15;;;3.80;;
31660;SDS011;18267;52.234;7.444;2022-08-23T05:28:32;5.97;;;3.70;;
31660;SDS011;18267;52.234;7.444;2022-08-23T05:33:30;5.45;;;3.88;;
31660;SDS011;18267;52.234;7.444;2022-08-23T05:35:56;3.85;;;3.55;;
31660;SDS011;18267;52.234;7.444;2022-08-23T05:38:24;4.80;;;4.32;;
31660;SDS011;18267;52.234;7.444;2022-08-23T05:40:51;9.13;;;4.20;;
31660;SDS011;18267;52.234;7.444;2022-08-23T05:43:19;5.38;;;4.07;;
31660;SDS011;18267;52.234;7.444;2022-08-23T05:45:45;7.60;;;4.13;;
31660;SDS011;18267;52.234;7.444;2022-08-23T05:48:12;5.55;;;4.03;;
31660;SDS011;18267;52.234;7.444;2022-08-23T05:50:42;8.10;;;4.32;;
31660;SDS011;18267;52.234;7.444;2022-08-23T05:53:08;4.82;;;3.85;;
31660;SDS011;18267;52.234;7.444;2022-08-23T05:55:36;5.32;;;4.10;;
31660;SDS011;18267;52.234;7.444;2022-08-23T05:58:02;7.20;;;4.68;;
31660;SDS011;18267;52.234;7.444;2022-08-23T06:00:28;9.20;;;4.43;;
31660;SDS011;18267;52.234;7.444;2022-08-23T06:02:53;4.38;;;3.92;;
31660;SDS011;18267;52.234;7.444;2022-08-23T06:05:19;4.00;;;3.70;;
31660;SDS011;18267;52.234;7.444;2022-08-23T06:07:45;7.15;;;4.25;;
31660;SDS011;18267;52.234;7.444;2022-08-23T06:10:11;4.68;;;4.13;;
31660;SDS011;18267;52.234;7.444;2022-08-23T06:12:37;8.20;;;4.10;;
31660;SDS011;18267;52.234;7.444;2022-08-23T06:15:02;4.45;;;4.05;;
31660;SDS011;18267;52.234;7.444;2022-08-23T06:17:28;7.57;;;4.00;;
31660;SDS011;18267;52.234;7.444;2022-08-23T06:19:54;5.63;;;3.67;;
31660;SDS011;18267;52.234;7.444;2022-08-23T06:22:19;6.00;;;3.78;;
31660;SDS011;18267;52.234;7.444;2022-08-23T06:24:45;4.30;;;3.90;;
31660;SDS011;18267;52.234;7.444;2022-08-23T06:27:11;4.30;;;3.90;;
31660;SDS011;18267;52.234;7.444;2022-08-23T06:29:37;8.98;;;3.67;;
31660;SDS011;18267;52.234;7.444;2022-08-23T06:32:03;6.35;;;3.90;;
31660;SDS011;18267;52.234;7.444;2022-08-23T06:34:34;7.63;;;4.15;;
31660;SDS011;18267;52.234;7.444;2022-08-23T06:37:04;7.07;;;4.07;;
31660;SDS011;18267;52.234;7.444;2022-08-23T06:39:35;5.82;;;3.83;;
31660;SDS011;18267;52.234;7.444;2022-08-23T06:42:06;6.30;;;3.13;;
31660;SDS011;18267;52.234;7.444;2022-08-23T06:44:34;5.60;;;3.38;;
31660;SDS011;18267;52.234;7.444;2022-08-23T06:47:00;8.02;;;3.30;;
31660;SDS011;18267;52.234;7.444;2022-08-23T06:49:27;9.38;;;3.10;;
31660;SDS011;18267;52.234;7.444;2022-08-23T06:51:54;8.50;;;2.90;;
31660;SDS011;18267;52.234;7.444;2022-08-23T06:54:23;4.43;;;2.85;;
31660;SDS011;18267;52.234;7.444;2022-08-23T06:56:50;5.68;;;3.08;;
31660;SDS011;18267;52.234;7.444;2022-08-23T06:59:16;6.57;;;2.80;;
31660;SDS011;18267;52.234;7.444;2022-08-23T07:01:51;7.10;;;3.60;;
31660;SDS011;18267;52.234;7.444;2022-08-23T07:04:24;4.45;;;2.58;;
31660;SDS011;18267;52.234;7.444;2022-08-23T07:06:52;4.72;;;2.67;;
31660;SDS011;18267;52.234;7.444;2022-08-23T07:09:18;6.93;;;2.35;;
31660;SDS011;18267;52.234;7.444;2022-08-23T07:11:43;2.20;;;2.00;;
31660;SDS011;18267;52.234;7.444;2022-08-23T07:14:11;2.67;;;2.08;;
31660;SDS011;18267;52.234;7.444;2022-08-23T07:16:39;7.43;;;2.35;;
31660;SDS011;18267;52.234;7.444;2022-08-23T07:19:08;4.97;;;2.30;;
31660;SDS011;18267;52.234;7.444;2022-08-23T07:21:34;6.85;;;2.20;;
31660;SDS011;18267;52.234;7.444;2022-08-23T07:24:00;7.90;;;2.45;;
31660;SDS011;18267;52.234;7.444;2022-08-23T07:26:26;6.65;;;2.47;;
31660;SDS011;18267;52.234;7.444;2022-08-23T07:28:52;9.10;;;2.47;;
31660;SDS011;18267;52.234;7.444;2022-08-23T07:31:22;3.67;;;2.30;;
31660;SDS011;18267;52.234;7.444;2022-08-23T07:33:51;3.00;;;2.10;;
31660;SDS011;18267;52.234;7.444;2022-08-23T07:36:18;3.33;;;2.08;;
31660;SDS011;18267;52.234;7.444;2022-08-23T07:38:46;7.00;;;2.40;;
31660;SDS011;18267;52.234;7.444;2022-08-23T07:41:12;6.22;;;2.10;;
31660;SDS011;18267;52.234;7.444;2022-08-23T07:43:39;3.08;;;2.05;;
31660;SDS011;18267;52.234;7.444;2022-08-23T07:46:05;3.80;;;1.90;;
31660;SDS011;18267;52.234;7.444;2022-08-23T07:48:31;4.38;;;1.85;;
31660;SDS011;18267;52.234;7.444;2022-08-23T07:50:59;5.45;;;1.83;;
31660;SDS011;18267;52.234;7.444;2022-08-23T07:53:28;6.10;;;1.95;;
31660;SDS011;18267;52.234;7.444;2022-08-23T07:55:54;12.65;;;2.03;;
31660;SDS011;18267;52.234;7.444;2022-08-23T07:58:20;13.80;;;1.90;;
31660;SDS011;18267;52.234;7.444;2022-08-23T08:00:48;10.65;;;2.00;;
31660;SDS011;18267;52.234;7.444;2022-08-23T08:03:14;12.82;;;1.92;;
31660;SDS011;18267;52.234;7.444;2022-08-23T08:05:40;6.72;;;1.77;;
31660;SDS011;18267;52.234;7.444;2022-08-23T08:08:07;6.55;;;1.70;;
31660;SDS011;18267;52.234;7.444;2022-08-23T08:10:37;1.95;;;1.50;;
31660;SDS011;18267;52.234;7.444;2022-08-23T08:13:05;8.45;;;2.22;;
31660;SDS011;18267;52.234;7.444;2022-08-23T08:15:31;9.38;;;2.08;;
31660;SDS011;18267;52.234;7.444;2022-08-23T08:17:57;2.40;;;1.90;;
31660;SDS011;18267;52.234;7.444;2022-08-23T08:20:23;3.03;;;1.83;;
31660;SDS011;18267;52.234;7.444;2022-08-23T08:22:52;3.97;;;2.05;;
31660;SDS011;18267;52.234;7.444;2022-08-23T08:25:18;4.38;;;1.70;;
31660;SDS011;18267;52.234;7.444;2022-08-23T08:27:43;2.47;;;1.55;;
31660;SDS011;18267;52.234;7.444;2022-08-23T08:30:10;10.43;;;1.90;;
31660;SDS011;18267;52.234;7.444;2022-08-23T08:32:37;6.78;;;1.85;;
31660;SDS011;18267;52.234;7.444;2022-08-23T08:35:03;5.68;;;1.88;;
31660;SDS011;18267;52.234;7.444;2022-08-23T08:37:30;2.13;;;1.85;;
31660;SDS011;18267;52.234;7.444;2022-08-23T08:39:56;5.07;;;1.80;;
31660;SDS011;18267;52.234;7.444;2022-08-23T08:45:25;6.20;;;2.03;;
31660;SDS011;18267;52.234;7.444;2022-08-23T08:48:01;11.85;;;2.00;;
31660;SDS011;18267;52.234;7.444;2022-08-23T08:50:35;3.45;;;1.85;;
31660;SDS011;18267;52.234;7.444;2022-08-23T08:53:07;3.10;;;1.90;;
31660;SDS011;18267;52.234;7.444;2022-08-23T08:55:50;4.22;;;1.85;;
31660;SDS011;18267;52.234;7.444;2022-08-23T08:58:42;6.38;;;1.85;;
31660;SDS011;18267;52.234;7.444;2022-08-23T09:01:09;4.50;;;2.30;;
31660;SDS011;18267;52.234;7.444;2022-08-23T09:03:36;4.07;;;2.35;;
31660;SDS011;18267;52.234;7.444;2022-08-23T09:06:11;4.75;;;2.33;;
31660;SDS011;18267;52.234;7.444;2022-08-23T09:13:55;5.07;;;2.20;;
31660;SDS011;18267;52.234;7.444;2022-08-23T09:16:31;8.27;;;2.17;;
31660;SDS011;18267;52.234;7.444;2022-08-23T09:19:11;3.63;;;2.30;;
31660;SDS011;18267;52.234;7.444;2022-08-23T09:21:40;3.65;;;2.00;;
31660;SDS011;18267;52.234;7.444;2022-08-23T09:24:19;4.38;;;2.10;;
31660;SDS011;18267;52.234;7.444;2022-08-23T09:26:45;5.30;;;2.30;;
31660;SDS011;18267;52.234;7.444;2022-08-23T09:29:18;6.30;;;2.63;;
31660;SDS011;18267;52.234;7.444;2022-08-23T09:31:50;3.97;;;2.22;;
31660;SDS011;18267;52.234;7.444;2022-08-23T09:34:28;5.50;;;2.67;;
31660;SDS011;18267;52.234;7.444;2022-08-23T09:39:38;12.30;;;2.35;;
31660;SDS011;18267;52.234;7.444;2022-08-23T09:42:25;5.05;;;2.17;;
31660;SDS011;18267;52.234;7.444;2022-08-23T09:44:54;8.07;;;2.42;;
31660;SDS011;18267;52.234;7.444;2022-08-23T09:47:20;4.80;;;2.05;;
31660;SDS011;18267;52.234;7.444;2022-08-23T09:49:57;12.77;;;3.00;;
31660;SDS011;18267;52.234;7.444;2022-08-23T09:52:39;7.65;;;1.92;;
31660;SDS011;18267;52.234;7.444;2022-08-23T09:55:10;5.53;;;1.80;;
31660;SDS011;18267;52.234;7.444;2022-08-23T09:57:49;4.60;;;2.17;;
31660;SDS011;18267;52.234;7.444;2022-08-23T10:02:45;3.28;;;1.98;;
31660;SDS011;18267;52.234;7.444;2022-08-23T10:07:52;6.07;;;1.83;;
31660;SDS011;18267;52.234;7.444;2022-08-23T10:10:28;1.95;;;1.80;;
31660;SDS011;18267;52.234;7.444;2022-08-23T10:12:59;4.05;;;1.73;;
31660;SDS011;18267;52.234;7.444;2022-08-23T10:15:31;3.08;;;1.63;;
31660;SDS011;18267;52.234;7.444;2022-08-23T10:21:20;10.02;;;1.80;;
31660;SDS011;18267;52.234;7.444;2022-08-23T10:30:22;3.00;;;1.67;;
31660;SDS011;18267;52.234;7.444;2022-08-23T10:33:33;3.90;;;1.90;;
31660;SDS011;18267;52.234;7.444;2022-08-23T10:38:57;4.10;;;1.90;;
31660;SDS011;18267;52.234;7.444;2022-08-23T10:46:48;6.38;;;1.73;;
31660;SDS011;18267;52.234;7.444;2022-08-23T10:51:48;3.72;;;1.80;;
31660;SDS011;18267;52.234;7.444;2022-08-23T10:54:18;6.50;;;1.98;;
31660;SDS011;18267;52.234;7.444;2022-08-23T10:56:59;2.72;;;1.80;;
31660;SDS011;18267;52.234;7.444;2022-08-23T10:59:26;6.35;;;2.20;;
31660;SDS011;18267;52.234;7.444;2022-08-23T11:02:04;6.18;;;1.90;;
31660;SDS011;18267;52.234;7.444;2022-08-23T11:04:52;2.10;;;1.63;;
31660;SDS011;18267;52.234;7.444;2022-08-23T11:07:33;2.85;;;2.13;;
31660;SDS011;18267;52.234;7.444;2022-08-23T11:13:49;8.70;;;2.08;;
31660;SDS011;18267;52.234;7.444;2022-08-23T11:15:43;5.80;;;2.08;;
31660;SDS011;18267;52.234;7.444;2022-08-23T11:18:56;9.57;;;2.40;;
31660;SDS011;18267;52.234;7.444;2022-08-23T11:23:49;6.90;;;1.77;;
31660;SDS011;18267;52.234;7.444;2022-08-23T11:28:50;2.78;;;1.73;;
31660;SDS011;18267;52.234;7.444;2022-08-23T11:34:39;4.05;;;2.00;;
31660;SDS011;18267;52.234;7.444;2022-08-23T11:37:29;8.68;;;2.03;;
31660;SDS011;18267;52.234;7.444;2022-08-23T11:40:12;2.58;;;1.85;;
31660;SDS011;18267;52.234;7.444;2022-08-23T11:48:23;2.15;;;1.70;;
31660;SDS011;18267;52.234;7.444;2022-08-23T11:51:21;4.93;;;1.90;;
31660;SDS011;18267;52.234;7.444;2022-08-23T12:02:43;5.35;;;1.77;;
31660;SDS011;18267;52.234;7.444;2022-08-23T12:24:02;4.50;;;2.10;;
31660;SDS011;18267;52.234;7.444;2022-08-23T12:26:54;3.28;;;1.85;;
31660;SDS011;18267;52.234;7.444;2022-08-23T12:37:49;2.33;;;2.03;;
31660;SDS011;18267;52.234;7.444;2022-08-23T12:40:37;4.25;;;1.63;;
31660;SDS011;18267;52.234;7.444;2022-08-23T12:43:10;2.38;;;1.98;;
31660;SDS011;18267;52.234;7.444;2022-08-23T12:45:43;4.23;;;2.50;;
31660;SDS011;18267;52.234;7.444;2022-08-23T12:48:14;6.07;;;1.95;;
31660;SDS011;18267;52.234;7.444;2022-08-23T12:50:42;6.18;;;1.90;;
31660;SDS011;18267;52.234;7.444;2022-08-23T12:53:13;5.57;;;1.70;;
31660;SDS011;18267;52.234;7.444;2022-08-23T12:55:41;4.78;;;1.65;;
31660;SDS011;18267;52.234;7.444;2022-08-23T12:58:13;4.40;;;1.92;;
31660;SDS011;18267;52.234;7.444;2022-08-23T13:03:15;3.15;;;1.80;;
31660;SDS011;18267;52.234;7.444;2022-08-23T13:05:46;4.75;;;2.00;;
31660;SDS011;18267;52.234;7.444;2022-08-23T13:08:48;4.88;;;1.38;;
31660;SDS011;18267;52.234;7.444;2022-08-23T13:11:17;4.32;;;1.83;;
31660;SDS011;18267;52.234;7.444;2022-08-23T13:13:44;1.98;;;1.70;;
31660;SDS011;18267;52.234;7.444;2022-08-23T13:21:40;2.47;;;1.52;;
31660;SDS011;18267;52.234;7.444;2022-08-23T13:24:25;5.95;;;1.55;;
31660;SDS011;18267;52.234;7.444;2022-08-23T13:27:17;7.53;;;1.90;;
31660;SDS011;18267;52.234;7.444;2022-08-23T13:32:41;3.72;;;1.85;;
31660;SDS011;18267;52.234;7.444;2022-08-23T13:37:55;5.97;;;2.00;;
31660;SDS011;18267;52.234;7.444;2022-08-23T13:43:24;1.73;;;1.60;;
31660;SDS011;18267;52.234;7.444;2022-08-23T13:45:57;2.35;;;1.70;;
31660;SDS011;18267;52.234;7.444;2022-08-23T13:48:33;2.53;;;1.48;;
31660;SDS011;18267;52.234;7.444;2022-08-23T13:53:48;1.70;;;1.33;;
31660;SDS011;18267;52.234;7.444;2022-08-23T13:56:13;3.75;;;1.90;;
31660;SDS011;18267;52.234;7.444;2022-08-23T13:58:40;4.07;;;1.50;;
31660;SDS011;18267;52.234;7.444;2022-08-23T14:01:08;3.08;;;1.63;;
31660;SDS011;18267;52.234;7.444;2022-08-23T14:03:40;5.00;;;1.90;;
31660;SDS011;18267;52.234;7.444;2022-08-23T14:06:06;1.83;;;1.70;;
31660;SDS011;18267;52.234;7.444;2022-08-23T14:08:31;2.35;;;1.40;;
31660;SDS011;18267;52.234;7.444;2022-08-23T14:10:57;3.03;;;1.98;;
31660;SDS011;18267;52.234;7.444;2022-08-23T14:13:23;4.70;;;1.88;;
31660;SDS011;18267;52.234;7.444;2022-08-23T14:16:02;7.53;;;1.90;;
31660;SDS011;18267;52.234;7.444;2022-08-23T14:18:30;1.75;;;1.65;;
31660;SDS011;18267;52.234;7.444;2022-08-23T14:20:56;5.13;;;1.80;;
31660;SDS011;18267;52.234;7.444;2022-08-23T14:23:22;10.90;;;2.00;;
31660;SDS011;18267;52.234;7.444;2022-08-23T14:25:48;2.78;;;1.98;;
31660;SDS011;18267;52.234;7.444;2022-08-23T14:28:15;7.07;;;1.83;;
31660;SDS011;18267;52.234;7.444;2022-08-23T14:30:42;2.17;;;1.60;;
31660;SDS011;18267;52.234;7.444;2022-08-23T14:33:08;3.42;;;1.80;;
31660;SDS011;18267;52.234;7.444;2022-08-23T14:35:33;3.65;;;1.98;;
31660;SDS011;18267;52.234;7.444;2022-08-23T14:37:59;5.20;;;2.08;;
31660;SDS011;18267;52.234;7.444;2022-08-23T14:40:25;6.03;;;2.42;;
31660;SDS011;18267;52.234;7.444;2022-08-23T14:42:50;3.83;;;2.10;;
31660;SDS011;18267;52.234;7.444;2022-08-23T14:45:23;5.35;;;2.35;;
31660;SDS011;18267;52.234;7.444;2022-08-23T14:47:48;5.45;;;2.10;;
31660;SDS011;18267;52.234;7.444;2022-08-23T14:50:14;1.73;;;1.63;;
31660;SDS011;18267;52.234;7.444;2022-08-23T14:52:43;3.97;;;2.22;;
31660;SDS011;18267;52.234;7.444;2022-08-23T14:55:10;2.72;;;1.83;;
31660;SDS011;18267;52.234;7.444;2022-08-23T14:57:37;3.60;;;2.10;;
31660;SDS011;18267;52.234;7.444;2022-08-23T15:00:04;4.53;;;1.90;;
31660;SDS011;18267;52.234;7.444;2022-08-23T15:02:31;3.55;;;2.00;;
31660;SDS011;18267;52.234;7.444;2022-08-23T15:05:00;3.38;;;1.80;;
31660;SDS011;18267;52.234;7.444;2022-08-23T15:07:26;2.70;;;1.90;;
31660;SDS011;18267;52.234;7.444;2022-08-23T15:09:51;2.00;;;1.65;;
31660;SDS011;18267;52.234;7.444;2022-08-23T15:12:20;4.78;;;1.80;;
31660;SDS011;18267;52.234;7.444;2022-08-23T15:14:46;4.60;;;1.60;;
31660;SDS011;18267;52.234;7.444;2022-08-23T15:17:12;5.43;;;1.98;;
31660;SDS011;18267;52.234;7.444;2022-08-23T15:19:38;6.63;;;2.08;;
31660;SDS011;18267;52.234;7.444;2022-08-23T15:22:03;2.13;;;1.58;;
31660;SDS011;18267;52.234;7.444;2022-08-23T15:24:29;5.45;;;2.10;;
31660;SDS011;18267;52.234;7.444;2022-08-23T15:26:56;6.88;;;2.28;;
31660;SDS011;18267;52.234;7.444;2022-08-23T15:29:30;4.15;;;2.03;;
31660;SDS011;18267;52.234;7.444;2022-08-23T15:31:56;5.20;;;2.00;;
31660;SDS011;18267;52.234;7.444;2022-08-23T15:34:22;9.95;;;2.00;;
31660;SDS011;18267;52.234;7.444;2022-08-23T15:36:47;3.97;;;1.65;;
31660;SDS011;18267;52.234;7.444;2022-08-23T15:39:13;6.05;;;2.05;;
31660;SDS011;18267;52.234;7.444;2022-08-23T15:41:38;4.00;;;1.77;;
31660;SDS011;18267;52.234;7.444;2022-08-23T15:44:05;6.38;;;2.03;;
31660;SDS011;18267;52.234;7.444;2022-08-23T15:46:32;7.50;;;1.90;;
31660;SDS011;18267;52.234;7.444;2022-08-23T15:49:03;3.53;;;2.05;;
31660;SDS011;18267;52.234;7.444;2022-08-23T15:51:35;1.55;;;1.42;;
31660;SDS011;18267;52.234;7.444;2022-08-23T15:54:01;5.28;;;1.83;;
31660;SDS011;18267;52.234;7.444;2022-08-23T15:56:28;2.63;;;1.85;;
31660;SDS011;18267;52.234;7.444;2022-08-23T15:58:58;4.63;;;2.08;;
31660;SDS011;18267;52.234;7.444;2022-08-23T16:01:24;1.92;;;1.70;;
31660;SDS011;18267;52.234;7.444;2022-08-23T16:03:51;4.53;;;2.05;;
31660;SDS011;18267;52.234;7.444;2022-08-23T16:06:17;4.13;;;2.25;;
31660;SDS011;18267;52.234;7.444;2022-08-23T16:08:44;3.15;;;2.53;;
31660;SDS011;18267;52.234;7.444;2022-08-23T16:11:13;3.25;;;2.08;;
31660;SDS011;18267;52.234;7.444;2022-08-23T16:13:42;3.42;;;1.88;;
31660;SDS011;18267;52.234;7.444;2022-08-23T16:18:38;4.72;;;2.17;;
31660;SDS011;18267;52.234;7.444;2022-08-23T16:21:04;3.47;;;1.73;;
31660;SDS011;18267;52.234;7.444;2022-08-23T16:23:29;5.82;;;2.00;;
31660;SDS011;18267;52.234;7.444;2022-08-23T16:25:55;4.57;;;1.98;;
31660;SDS011;18267;52.234;7.444;2022-08-23T16:28:20;2.10;;;1.95;;
31660;SDS011;18267;52.234;7.444;2022-08-23T16:30:46;5.97;;;2.17;;
31660;SDS011;18267;52.234;7.444;2022-08-23T16:33:12;6.22;;;1.95;;
31660;SDS011;18267;52.234;7.444;2022-08-23T16:35:37;3.55;;;2.08;;
31660;SDS011;18267;52.234;7.444;2022-08-23T16:38:03;3.30;;;2.10;;
31660;SDS011;18267;52.234;7.444;2022-08-23T16:40:29;3.17;;;2.03;;
31660;SDS011;18267;52.234;7.444;2022-08-23T16:42:54;2.28;;;1.92;;
31660;SDS011;18267;52.234;7.444;2022-08-23T16:45:20;3.55;;;1.92;;
31660;SDS011;18267;52.234;7.444;2022-08-23T16:47:47;4.72;;;2.15;;
31660;SDS011;18267;52.234;7.444;2022-08-23T16:50:12;2.70;;;2.30;;
31660;SDS011;18267;52.234;7.444;2022-08-23T16:52:38;2.67;;;2.00;;
31660;SDS011;18267;52.234;7.444;2022-08-23T16:55:05;3.83;;;2.28;;
31660;SDS011;18267;52.234;7.444;2022-08-23T16:57:34;9.82;;;2.30;;
31660;SDS011;18267;52.234;7.444;2022-08-23T17:00:00;6.05;;;2.22;;
31660;SDS011;18267;52.234;7.444;2022-08-23T17:02:27;2.63;;;1.60;;